Time;durP1;ratioP1;P1;durP2;ratioP2;P2;SDS_P1;SDS_P2;PMS_P1;PMS_P2;Temp;Humidity;BMP_temperature;BMP_pressure;BME280_temperature;BME280_humidity;BME280_pressure;Samples;Min_cycle;Max_cycle;Signal;HPM_P1;HPM_P2
2023/10/08 00:01:13;;;;;;;0.50;0.40;;;;;;;14.13;93.35;95815.00;5142405;27;20449;-57
2023/10/08 00:03:48;;;;;;;2.70;0.40;;;;;;;14.25;92.79;95811.94;5145426;27;20867;-57
2023/10/08 00:06:19;;;;;;;0.70;0.40;;;;;;;14.51;90.05;95794.69;5149588;27;20468;-57
2023/10/08 00:08:49;;;;;;;0.40;0.30;;;;;;;14.63;87.64;95793.22;5150169;27;21012;-57
2023/10/08 00:11:18;;;;;;;0.40;0.30;;;;;;;14.41;90.11;95802.78;5150348;27;20445;-57
2023/10/08 00:13:48;;;;;;;0.50;0.30;;;;;;;14.36;91.35;95800.16;5150140;27;20426;-57
2023/10/08 00:16:17;;;;;;;0.50;0.30;;;;;;;14.31;91.73;95784.19;5150203;27;20472;-57
2023/10/08 00:18:50;;;;;;;2.83;0.70;;;;;;;14.48;91.15;95792.56;5149714;27;20993;-57
2023/10/08 00:21:26;;;;;;;0.53;0.30;;;;;;;14.46;91.25;95792.88;5149300;27;20446;-57
2023/10/08 00:23:58;;;;;;;1.03;0.40;;;;;;;14.52;90.09;95780.28;5149432;27;20530;-57
2023/10/08 00:26:27;;;;;;;0.50;0.40;;;;;;;14.31;90.73;95757.53;5149327;27;20972;-57
2023/10/08 00:28:57;;;;;;;0.40;0.30;;;;;;;14.36;90.17;95765.50;5150035;27;20465;-57
2023/10/08 00:31:32;;;;;;;0.40;0.27;;;;;;;14.26;90.98;95760.22;5149609;27;20494;-57
2023/10/08 00:34:04;;;;;;;0.50;0.30;;;;;;;13.92;92.35;95766.38;5150304;27;20437;-57
2023/10/08 00:36:34;;;;;;;0.40;0.30;;;;;;;14.33;89.31;95760.72;5149244;27;20489;-57
2023/10/08 00:39:09;;;;;;;1.37;0.40;;;;;;;13.93;89.12;95689.91;5149366;27;20948;-57
2023/10/08 00:41:38;;;;;;;2.20;0.70;;;;;;;14.30;90.20;95771.91;5149735;27;20478;-57
2023/10/08 00:44:09;;;;;;;0.60;0.40;;;;;;;14.30;91.29;95767.38;5149408;27;20825;-57
2023/10/08 00:46:39;;;;;;;0.73;0.73;;;;;;;14.33;90.47;95766.84;5124412;27;20442;-58
2023/10/08 00:49:24;;;;;;;0.40;0.20;;;;;;;14.27;90.53;95767.16;5136440;27;20438;-57
2023/10/08 00:52:18;;;;;;;1.33;1.23;;;;;;;14.21;90.37;95760.28;5135843;27;20514;-57
2023/10/08 00:55:06;;;;;;;4.30;0.60;;;;;;;14.27;89.46;95757.25;5136083;27;20459;-57
2023/10/08 00:57:36;;;;;;;0.93;0.60;;;;;;;14.11;90.56;95757.69;5135221;27;20483;-57
2023/10/08 01:00:15;;;;;;;0.40;0.30;;;;;;;14.02;91.55;95763.63;5135852;27;20430;-57
2023/10/08 01:02:49;;;;;;;0.60;0.40;;;;;;;14.10;91.92;95756.09;5135396;27;20430;-57
2023/10/08 01:05:24;;;;;;;0.50;0.30;;;;;;;13.99;91.38;95732.19;5134788;27;20472;-57
2023/10/08 01:07:55;;;;;;;0.50;0.43;;;;;;;14.02;91.53;95742.31;5135075;27;20515;-57
2023/10/08 01:10:26;;;;;;;1.43;0.70;;;;;;;14.02;91.81;95738.84;5135327;27;20483;-57
2023/10/08 01:13:05;;;;;;;0.70;0.57;;;;;;;13.91;92.79;95748.78;5135168;27;20430;-57
2023/10/08 01:15:35;;;;;;;0.80;0.50;;;;;;;13.98;91.54;95741.28;5134383;27;20430;-57
2023/10/08 01:18:07;;;;;;;0.47;0.33;;;;;;;13.51;94.70;95727.78;5135131;27;20474;-57
2023/10/08 01:20:37;;;;;;;0.50;0.50;;;;;;;13.56;94.30;95745.63;5108195;27;20434;-57
2023/10/08 01:23:12;;;;;;;0.50;0.40;;;;;;;13.44;96.20;95745.13;5135007;27;20945;-57
2023/10/08 01:25:42;;;;;;;0.50;0.40;;;;;;;13.60;94.59;95752.78;5134913;27;20504;-57
2023/10/08 01:28:15;;;;;;;0.93;0.40;;;;;;;13.42;95.33;95720.66;5134995;27;20879;-57
2023/10/08 01:30:46;;;;;;;2.20;0.40;;;;;;;13.69;94.36;95745.75;5135077;27;20434;-57
2023/10/08 01:33:17;;;;;;;0.50;0.40;;;;;;;13.71;93.22;95751.59;5134516;27;20431;-57
2023/10/08 01:35:48;;;;;;;0.50;0.30;;;;;;;13.70;93.79;95746.56;5134558;27;20977;-57
2023/10/08 01:38:23;;;;;;;0.60;0.30;;;;;;;13.68;93.98;95744.19;5134470;27;20990;-57
2023/10/08 01:40:52;;;;;;;0.70;0.43;;;;;;;13.63;94.22;95736.25;5134454;27;20433;-57
2023/10/08 01:43:21;;;;;;;0.73;0.60;;;;;;;13.63;93.36;95740.75;5108959;27;20937;-57
2023/10/08 01:45:52;;;;;;;0.53;0.53;;;;;;;13.45;94.90;95739.56;5134395;27;20526;-57
2023/10/08 01:48:27;;;;;;;0.60;0.60;;;;;;;13.56;94.98;95742.94;5134573;27;20513;-57
2023/10/08 01:51:01;;;;;;;0.40;0.30;;;;;;;13.48;96.12;95744.34;5134518;27;20513;-57
2023/10/08 01:53:31;;;;;;;0.60;0.40;;;;;;;13.32;94.95;95740.16;5134611;27;20434;-57
2023/10/08 01:56:01;;;;;;;0.60;0.50;;;;;;;12.90;100.00;95747.81;5134710;27;20767;-57
2023/10/08 01:58:29;;;;;;;0.67;0.60;;;;;;;12.93;98.11;95726.00;5134405;27;20474;-57
2023/10/08 02:00:59;;;;;;;0.60;0.40;;;;;;;13.12;98.64;95745.59;5132597;27;20445;-57
2023/10/08 02:03:28;;;;;;;0.40;0.20;;;;;;;13.41;95.56;95741.16;5134480;27;20446;-57
2023/10/08 02:05:59;;;;;;;0.50;0.40;;;;;;;12.90;95.82;95655.50;5133700;27;20442;-57
2023/10/08 02:08:30;;;;;;;0.60;0.40;;;;;;;13.32;96.01;95732.19;5133090;27;20446;-57
2023/10/08 02:11:00;;;;;;;0.60;0.60;;;;;;;13.35;94.28;95737.75;5134068;27;20435;-57
2023/10/08 02:13:28;;;;;;;0.43;0.33;;;;;;;13.27;94.34;95732.22;5133900;27;20464;-57
2023/10/08 02:15:58;;;;;;;0.60;0.50;;;;;;;13.33;94.47;95737.22;5133973;27;20450;-57
2023/10/08 02:18:27;;;;;;;0.57;0.40;;;;;;;13.20;95.73;95734.38;5133438;27;20505;-57
2023/10/08 02:20:55;;;;;;;0.50;0.43;;;;;;;13.17;95.56;95735.72;5134438;27;20538;-58
2023/10/08 02:23:24;;;;;;;1.10;0.77;;;;;;;13.15;94.73;95729.09;5133607;27;20854;-57
2023/10/08 02:25:54;;;;;;;0.43;0.30;;;;;;;13.29;92.81;95724.75;5133549;27;20517;-57
2023/10/08 02:28:25;;;;;;;1.20;0.93;;;;;;;13.14;94.11;95730.97;5133900;27;20837;-57
2023/10/08 02:30:54;;;;;;;0.70;0.70;;;;;;;13.07;93.74;95730.47;5133823;27;20445;-58
2023/10/08 02:33:22;;;;;;;0.50;0.30;;;;;;;12.77;97.40;95721.81;5133411;27;20466;-57
2023/10/08 02:35:51;;;;;;;0.50;0.40;;;;;;;12.91;97.21;95731.56;5133758;27;20484;-57
2023/10/08 02:38:21;;;;;;;0.60;0.30;;;;;;;13.07;94.92;95729.66;5132805;27;20523;-57
2023/10/08 02:40:50;;;;;;;0.50;0.30;;;;;;;12.88;96.09;95721.47;5133549;27;20821;-58
2023/10/08 02:43:20;;;;;;;0.70;0.70;;;;;;;12.90;95.06;95731.84;5133735;27;20445;-57
2023/10/08 02:45:50;;;;;;;0.57;0.53;;;;;;;12.92;95.03;95729.72;5133315;27;20477;-57
2023/10/08 02:48:20;;;;;;;0.60;0.40;;;;;;;12.89;95.59;95727.59;5133497;27;20435;-57
2023/10/08 02:50:49;;;;;;;0.50;0.33;;;;;;;13.02;94.30;95724.34;5133064;27;21077;-57
2023/10/08 02:53:20;;;;;;;1.03;1.03;;;;;;;12.99;93.95;95717.69;5133769;27;20456;-57
2023/10/08 02:55:50;;;;;;;0.60;0.53;;;;;;;12.68;95.55;95722.34;5133055;27;20466;-56
2023/10/08 02:58:19;;;;;;;0.50;0.40;;;;;;;12.67;96.61;95718.09;5132827;27;20470;-57
2023/10/08 03:00:50;;;;;;;0.50;0.30;;;;;;;12.61;99.00;95718.41;5133404;27;20446;-57
2023/10/08 03:03:19;;;;;;;0.50;0.40;;;;;;;12.66;97.62;95713.88;5133162;27;20787;-57
2023/10/08 03:05:49;;;;;;;0.40;0.33;;;;;;;12.84;96.94;95706.34;5132476;27;20446;-56
2023/10/08 03:08:20;;;;;;;0.50;0.50;;;;;;;12.64;95.67;95664.69;5132755;27;20446;-57
2023/10/08 03:10:50;;;;;;;2.20;0.40;;;;;;;12.73;96.97;95709.03;5126171;27;20824;-58
2023/10/08 03:13:19;;;;;;;0.60;0.57;;;;;;;12.70;97.12;95709.56;5126327;27;20530;-57
2023/10/08 03:16:08;;;;;;;0.60;0.40;;;;;;;12.62;98.01;95709.38;5132979;27;20443;-58
2023/10/08 03:18:43;;;;;;;0.43;0.30;;;;;;;12.39;96.50;95641.66;5132889;27;20470;-58
2023/10/08 03:21:21;;;;;;;1.13;0.70;;;;;;;13.20;92.18;95713.91;5132530;27;20505;-58
2023/10/08 03:23:58;;;;;;;0.50;0.30;;;;;;;13.08;93.30;95708.09;5107221;27;20435;-58
2023/10/08 03:26:35;;;;;;;0.53;0.40;;;;;;;13.26;92.44;95710.13;5132038;27;20435;-58
2023/10/08 03:29:08;;;;;;;0.50;0.33;;;;;;;13.33;91.31;95715.91;5132944;27;20653;-58
2023/10/08 03:31:49;;;;;;;0.50;0.30;;;;;;;12.93;90.17;95660.25;5132332;27;20525;-58
2023/10/08 03:34:20;;;;;;;0.50;0.40;;;;;;;12.89;92.37;95714.28;5132406;28;20442;-56
2023/10/08 03:36:50;;;;;;;0.60;0.50;;;;;;;13.09;90.10;95707.03;5132735;27;20489;-57
2023/10/08 03:39:19;;;;;;;0.50;0.30;;;;;;;13.24;90.07;95716.78;5131783;27;20466;-58
2023/10/08 03:41:59;;;;;;;3.63;0.50;;;;;;;13.05;91.24;95723.78;5132538;27;20450;-58
2023/10/08 03:44:29;;;;;;;1.27;0.63;;;;;;;12.99;90.33;95716.91;5131752;28;20430;-57
2023/10/08 03:47:00;;;;;;;0.87;0.30;;;;;;;13.07;88.34;95725.16;5132582;27;21008;-58
2023/10/08 03:49:31;;;;;;;17.87;0.47;;;;;;;12.89;89.95;95722.28;5132144;28;20934;-57
2023/10/08 03:52:00;;;;;;;0.93;0.57;;;;;;;12.73;92.26;95719.69;5131974;27;20464;-58
2023/10/08 03:54:34;;;;;;;4.30;1.13;;;;;;;12.64;93.38;95723.97;5132167;27;20510;-58
2023/10/08 03:57:06;;;;;;;0.50;0.30;;;;;;;12.54;94.91;95716.03;5132416;28;20438;-58
2023/10/08 03:59:40;;;;;;;0.43;0.27;;;;;;;12.53;95.49;95711.78;5132152;27;20485;-58
2023/10/08 04:02:14;;;;;;;0.50;0.30;;;;;;;12.41;96.58;95718.47;5132010;28;20526;-58
2023/10/08 04:04:56;;;;;;;0.50;0.40;;;;;;;12.53;96.14;95719.75;5132346;27;20500;-58
2023/10/08 04:07:25;;;;;;;0.57;0.50;;;;;;;12.54;95.62;95710.72;5132227;28;20430;-58
2023/10/08 04:10:05;;;;;;;0.57;0.30;;;;;;;12.44;95.74;95699.31;5132684;27;20434;-59
2023/10/08 04:12:34;;;;;;;0.50;0.40;;;;;;;12.53;96.21;95713.63;5132006;28;20816;-58
2023/10/08 04:15:07;;;;;;;0.50;0.50;;;;;;;12.46;96.62;95703.31;5131815;28;20938;-58
2023/10/08 04:17:43;;;;;;;0.87;0.43;;;;;;;12.46;96.25;95705.97;5131452;28;20430;-58
2023/10/08 04:20:32;;;;;;;0.50;0.30;;;;;;;12.59;95.25;95694.75;5131747;28;20474;-58
2023/10/08 04:23:04;;;;;;;1.17;0.40;;;;;;;12.58;95.40;95697.66;5132296;27;20434;-58
2023/10/08 04:25:34;;;;;;;0.77;0.40;;;;;;;12.37;97.17;95696.94;5135607;27;20797;-58
2023/10/08 04:28:02;;;;;;;0.60;0.53;;;;;;;12.53;96.72;95695.03;5134874;27;20450;-59
2023/10/08 04:30:34;;;;;;;0.40;0.40;;;;;;;12.46;96.11;95695.31;5135979;27;20437;-58
2023/10/08 04:33:06;;;;;;;0.60;0.50;;;;;;;12.33;97.41;95695.91;5135636;27;20442;-58
2023/10/08 04:35:40;;;;;;;0.80;0.40;;;;;;;12.16;98.08;95699.94;5135761;27;20470;-58
2023/10/08 04:38:10;;;;;;;0.53;0.53;;;;;;;12.22;96.57;95718.25;5135498;27;20465;-58
2023/10/08 04:40:47;;;;;;;0.60;0.40;;;;;;;12.14;96.45;95712.69;5136146;27;20466;-58
2023/10/08 04:43:21;;;;;;;2.90;0.63;;;;;;;12.25;95.92;95704.41;5108792;27;20929;-58
2023/10/08 04:45:50;;;;;;;0.40;0.30;;;;;;;12.09;96.59;95706.31;5135439;27;20818;-57
2023/10/08 04:48:20;;;;;;;0.60;0.37;;;;;;;11.74;97.88;95700.28;5135557;27;20968;-58
2023/10/08 04:50:57;;;;;;;0.93;0.30;;;;;;;11.79;99.82;95724.94;5135631;27;20458;-58
2023/10/08 04:53:31;;;;;;;0.90;0.90;;;;;;;11.90;98.88;95718.56;5134715;27;20495;-58
2023/10/08 04:56:05;;;;;;;0.70;0.53;;;;;;;11.92;98.95;95711.13;5134829;27;20434;-58
2023/10/08 04:58:36;;;;;;;0.77;0.77;;;;;;;11.95;99.57;95699.16;5135345;27;20442;-57
2023/10/08 05:01:18;;;;;;;1.43;1.33;;;;;;;11.78;100.00;95688.03;5121831;27;20447;-57
2023/10/08 05:04:07;;;;;;;0.40;0.30;;;;;;;12.04;100.00;95702.88;5134994;27;20430;-57
2023/10/08 05:09:38;;;;;;;0.60;0.60;;;;;;;12.20;100.00;95715.06;5127484;27;20451;-57
2023/10/08 05:12:11;;;;;;;0.80;0.43;;;;;;;12.19;99.64;95716.13;5135007;27;20487;-58
2023/10/08 05:14:55;;;;;;;2.90;0.40;;;;;;;12.06;100.00;95711.38;5135318;27;20941;-57
2023/10/08 05:17:25;;;;;;;0.80;0.80;;;;;;;12.00;100.00;95713.25;5134713;27;20438;-57
2023/10/08 05:20:17;;;;;;;0.80;0.80;;;;;;;12.25;100.00;95714.25;5134454;27;20495;-57
2023/10/08 05:22:44;;;;;;;0.50;0.40;;;;;;;12.50;98.14;95707.00;5135253;27;20542;-56
2023/10/08 05:25:40;;;;;;;1.90;0.63;;;;;;;12.67;97.01;95718.09;5134322;27;20891;-57
2023/10/08 05:28:09;;;;;;;0.70;0.70;;;;;;;12.61;97.87;95721.84;5134124;27;20470;-57
2023/10/08 05:30:53;;;;;;;1.37;0.90;;;;;;;12.54;98.40;95723.22;5134549;27;20443;-57
2023/10/08 05:33:24;;;;;;;1.03;0.53;;;;;;;12.50;98.96;95712.31;5134507;27;20439;-57
2023/10/08 05:36:02;;;;;;;4.63;0.70;;;;;;;12.33;99.65;95714.50;5134390;27;20514;-57
2023/10/08 05:38:49;;;;;;;0.67;0.67;;;;;;;12.37;100.00;95715.53;5134368;27;20517;-57
2023/10/08 05:41:38;;;;;;;0.70;0.70;;;;;;;12.19;100.00;95710.81;5134267;27;20452;-57
2023/10/08 05:44:23;;;;;;;1.03;1.03;;;;;;;12.02;100.00;95713.75;5133906;27;20439;-57
2023/10/08 05:50:28;;;;;;;0.80;0.80;;;;;;;12.42;98.75;95706.78;5078591;27;1478800;-57
2023/10/08 05:52:50;;;;;;;0.47;0.47;;;;;;;12.25;98.52;95715.03;5129382;28;20193;-56
2023/10/08 05:55:25;;;;;;;0.60;0.57;;;;;;;12.77;96.44;95721.81;5129838;28;20449;-56
2023/10/08 05:58:13;;;;;;;0.87;0.87;;;;;;;13.46;90.82;95727.81;5129490;28;20510;-56
2023/10/08 06:01:05;;;;;;;2.20;0.30;;;;;;;13.63;85.74;95644.88;5129491;28;20447;-58
2023/10/08 06:03:36;;;;;;;0.93;0.70;;;;;;;14.62;82.08;95714.25;5118133;28;20443;-57
2023/10/08 06:09:21;;;;;;;0.80;0.50;;;;;;;15.98;77.29;95716.91;5150586;27;20542;-56
2023/10/08 06:12:09;;;;;;;0.80;0.53;;;;;;;16.24;74.20;95704.66;5150102;27;20502;-58
2023/10/08 06:15:06;;;;;;;1.30;1.20;;;;;;;16.62;72.40;95709.91;5150380;27;20510;-60
2023/10/08 06:17:55;;;;;;;0.60;0.50;;;;;;;16.71;72.04;95708.91;5149767;27;20438;-61
2023/10/08 06:20:26;;;;;;;0.50;0.40;;;;;;;17.24;70.46;95687.72;5149430;27;20508;-61
2023/10/08 06:23:03;;;;;;;0.60;0.60;;;;;;;17.66;68.32;95703.38;5150194;27;20806;-60
2023/10/08 06:25:33;;;;;;;3.73;0.70;;;;;;;18.13;66.05;95701.16;5150288;27;20960;-61
2023/10/08 06:28:02;;;;;;;1.17;0.50;;;;;;;18.19;64.72;95691.91;5149717;27;20469;-62
2023/10/08 06:30:34;;;;;;;0.90;0.70;;;;;;;18.58;63.28;95697.31;5149886;27;20808;-63
2023/10/08 06:33:04;;;;;;;0.90;0.90;;;;;;;18.66;62.77;95701.94;5149901;27;20482;-63
2023/10/08 06:35:34;;;;;;;1.10;1.07;;;;;;;18.76;61.67;95695.47;5149883;27;20438;-63
2023/10/08 06:38:07;;;;;;;1.73;1.27;;;;;;;19.11;60.02;95694.47;5135854;27;20429;-62
2023/10/08 06:40:43;;;;;;;1.27;1.17;;;;;;;19.35;59.58;95699.41;5150324;27;20461;-68
2023/10/08 06:43:24;;;;;;;0.97;0.87;;;;;;;19.79;58.96;95695.63;5149224;27;20474;-68
2023/10/08 06:45:57;;;;;;;0.50;0.40;;;;;;;20.48;56.59;95686.34;5149082;27;20438;-69
2023/10/08 06:48:29;;;;;;;2.10;2.00;;;;;;;20.13;57.09;95688.31;5147751;27;20473;-71
2023/10/08 06:50:58;;;;;;;2.30;0.87;;;;;;;20.93;55.26;95689.28;5148020;27;20433;-73
2023/10/08 06:53:29;;;;;;;0.67;0.50;;;;;;;21.16;54.84;95682.53;5147549;27;20434;-74
2023/10/08 06:56:04;;;;;;;0.97;0.97;;;;;;;21.77;54.25;95680.97;5148263;27;20512;-72
2023/10/08 06:58:33;;;;;;;0.93;0.77;;;;;;;20.58;53.38;95669.03;5147797;27;20505;-70
2023/10/08 07:01:04;;;;;;;0.80;0.80;;;;;;;20.06;54.39;95693.38;5146316;27;21164;-69
2023/10/08 07:03:34;;;;;;;0.50;0.43;;;;;;;20.05;55.27;95691.00;5146635;27;20446;-67
2023/10/08 07:06:10;;;;;;;1.10;0.67;;;;;;;20.29;54.42;95683.22;5147393;27;20524;-64
2023/10/08 07:08:46;;;;;;;6.03;3.07;;;;;;;21.07;54.73;95689.88;5146104;27;20489;-63
2023/10/08 07:11:17;;;;;;;0.50;0.40;;;;;;;21.71;52.30;95687.66;5147215;27;20824;-62
2023/10/08 07:13:46;;;;;;;0.63;0.43;;;;;;;21.32;51.10;95688.13;5147399;27;20902;-62
2023/10/08 07:16:17;;;;;;;0.60;0.60;;;;;;;22.12;50.14;95684.94;5148932;27;20964;-62
2023/10/08 07:18:51;;;;;;;0.60;0.47;;;;;;;22.29;50.11;95669.69;5144031;27;20492;-61
2023/10/08 07:21:28;;;;;;;0.73;0.60;;;;;;;22.12;48.21;95665.25;5135522;27;20936;-61
2023/10/08 07:23:57;;;;;;;1.00;0.90;;;;;;;21.83;47.53;95660.72;5135395;27;20513;-60
2023/10/08 07:26:35;;;;;;;0.50;0.37;;;;;;;21.82;47.51;95644.88;5135327;27;20509;-61
2023/10/08 07:29:08;;;;;;;1.30;0.60;;;;;;;21.83;47.16;95673.44;5135640;27;20505;-61
2023/10/08 07:31:38;;;;;;;0.90;0.77;;;;;;;22.94;46.83;95664.13;5134738;27;20445;-60
2023/10/08 07:34:18;;;;;;;2.17;0.87;;;;;;;23.41;45.96;95666.34;5136264;27;20434;-60
2023/10/08 07:36:49;;;;;;;2.30;1.03;;;;;;;22.73;45.64;95656.13;5135319;27;20438;-60
2023/10/08 07:39:33;;;;;;;0.93;0.60;;;;;;;22.61;46.06;95636.41;5134496;27;20448;-59
2023/10/08 07:42:07;;;;;;;0.70;0.63;;;;;;;22.61;47.18;95660.72;5135336;27;20434;-61
2023/10/08 07:44:38;;;;;;;0.70;0.60;;;;;;;23.29;46.24;95659.00;5134345;27;20867;-62
2023/10/08 07:47:12;;;;;;;4.70;0.57;;;;;;;23.71;45.43;95660.28;5123341;27;20435;-63
2023/10/08 07:49:43;;;;;;;0.90;0.53;;;;;;;24.12;45.27;95647.47;5133973;27;20474;-64
2023/10/08 07:52:15;;;;;;;0.70;0.50;;;;;;;24.90;43.57;95631.25;5135256;27;20470;-62
2023/10/08 07:54:45;;;;;;;0.90;0.63;;;;;;;24.64;44.97;95645.34;5109456;27;20438;-64
2023/10/08 07:57:18;;;;;;;1.00;1.00;;;;;;;24.90;43.91;95645.59;5134573;27;20566;-62
2023/10/08 07:59:48;;;;;;;0.40;0.30;;;;;;;26.02;41.38;95602.22;5134613;27;20870;-62
2023/10/08 08:02:20;;;;;;;0.60;0.53;;;;;;;26.47;40.12;95630.22;5134223;27;20435;-63
2023/10/08 08:04:52;;;;;;;0.67;0.50;;;;;;;26.19;41.35;95626.22;5134557;27;20431;-63
2023/10/08 08:07:21;;;;;;;0.63;0.47;;;;;;;25.83;39.56;95617.38;5134446;27;20919;-63
2023/10/08 08:09:51;;;;;;;2.33;0.70;;;;;;;26.00;40.16;95610.72;5134616;27;20992;-63
2023/10/08 08:12:25;;;;;;;1.33;1.23;;;;;;;26.20;39.71;95582.41;5133876;27;20431;-62
2023/10/08 08:14:54;;;;;;;0.87;0.73;;;;;;;25.84;40.32;95608.09;5134405;27;20491;-62
2023/10/08 08:17:23;;;;;;;0.93;0.93;;;;;;;26.12;40.25;95612.53;5134432;27;20586;-62
2023/10/08 08:19:53;;;;;;;0.63;0.63;;;;;;;26.46;40.23;95595.28;5133858;27;20438;-62
2023/10/08 08:22:23;;;;;;;0.50;0.50;;;;;;;27.47;37.27;95599.91;5134352;27;20434;-62
2023/10/08 08:24:55;;;;;;;0.60;0.50;;;;;;;27.37;36.49;95595.09;5134339;27;20438;-62
2023/10/08 08:27:31;;;;;;;0.67;0.50;;;;;;;27.91;36.43;95594.56;5134753;27;20517;-63
2023/10/08 08:30:09;;;;;;;0.40;0.30;;;;;;;27.99;35.12;95593.50;5134085;27;20581;-62
2023/10/08 08:32:39;;;;;;;0.50;0.30;;;;;;;29.21;33.50;95575.84;5133847;27;20426;-62
2023/10/08 08:35:09;;;;;;;0.63;0.60;;;;;;;28.09;33.42;95581.94;5107306;27;20521;-62
2023/10/08 08:37:39;;;;;;;0.60;0.60;;;;;;;28.20;34.36;95583.63;5133968;27;20434;-63
2023/10/08 08:40:17;;;;;;;4.37;1.17;;;;;;;27.82;34.11;95561.41;5133892;27;20442;-64
2023/10/08 08:42:48;;;;;;;1.00;1.00;;;;;;;28.20;35.19;95575.44;5133521;27;20811;-64
2023/10/08 08:45:21;;;;;;;0.40;0.40;;;;;;;28.26;34.02;95570.41;5133270;27;20797;-64
2023/10/08 08:47:49;;;;;;;4.13;0.83;;;;;;;28.63;32.88;95538.44;5133476;27;20503;-65
2023/10/08 08:50:20;;;;;;;1.40;0.60;;;;;;;29.06;32.25;95555.88;5133460;27;20513;-64
2023/10/08 08:52:48;;;;;;;0.83;0.80;;;;;;;28.99;31.65;95552.31;5133563;27;20506;-64
2023/10/08 08:55:17;;;;;;;0.63;0.50;;;;;;;29.76;31.01;95549.94;5133598;27;20507;-65
2023/10/08 08:57:49;;;;;;;0.80;0.40;;;;;;;29.62;31.68;95546.38;5133954;27;20427;-65
2023/10/08 09:00:20;;;;;;;0.50;0.50;;;;;;;30.24;32.68;95544.19;5133601;27;20462;-64
2023/10/08 09:02:49;;;;;;;1.13;0.60;;;;;;;29.66;32.41;95517.91;5133365;27;20436;-65
2023/10/08 09:05:25;;;;;;;0.40;0.40;;;;;;;28.90;31.82;95549.91;5119533;27;20466;-64
2023/10/08 09:07:58;;;;;;;0.60;0.50;;;;;;;30.33;31.42;95542.66;5133028;27;20548;-66
2023/10/08 09:10:28;;;;;;;1.00;0.90;;;;;;;29.19;30.25;95535.28;5132686;27;20496;-65
2023/10/08 09:12:59;;;;;;;12.93;0.97;;;;;;;29.14;30.19;95489.22;5133597;27;20440;-66
2023/10/08 09:15:28;;;;;;;0.50;0.40;;;;;;;29.55;30.29;95544.41;5132326;27;20775;-66
2023/10/08 09:18:00;;;;;;;0.50;0.50;;;;;;;30.02;29.50;95544.19;5133509;27;20835;-66
2023/10/08 09:20:31;;;;;;;1.03;0.50;;;;;;;30.57;29.33;95532.91;5106196;27;20448;-67
2023/10/08 09:23:18;;;;;;;0.50;0.50;;;;;;;31.01;30.57;95533.25;5132778;27;20490;-66
2023/10/08 09:25:49;;;;;;;0.40;0.30;;;;;;;31.17;29.13;95514.41;5133147;27;20426;-66
2023/10/08 09:28:21;;;;;;;0.40;0.30;;;;;;;31.15;29.51;95522.25;5132386;27;20438;-66
2023/10/08 09:30:52;;;;;;;0.70;0.70;;;;;;;31.78;29.25;95512.22;5133073;27;20440;-66
2023/10/08 09:33:20;;;;;;;0.37;0.33;;;;;;;32.26;29.54;95466.47;5119308;27;20921;-66
2023/10/08 09:35:51;;;;;;;0.63;0.63;;;;;;;32.51;27.88;95513.69;5132942;27;20494;-65
2023/10/08 09:38:23;;;;;;;1.23;0.70;;;;;;;32.62;27.21;95511.66;5134285;27;20430;-66
2023/10/08 09:40:54;;;;;;;0.30;0.30;;;;;;;32.49;27.62;95461.16;5132603;27;20434;-65
2023/10/08 09:43:25;;;;;;;1.40;1.40;;;;;;;32.16;28.29;95496.72;5119267;27;20455;-66
2023/10/08 09:46:01;;;;;;;0.50;0.40;;;;;;;32.29;27.80;95479.38;5131975;27;20430;-65
2023/10/08 09:48:36;;;;;;;2.20;1.13;;;;;;;32.52;28.29;95473.31;5131825;27;20498;-66
2023/10/08 09:51:07;;;;;;;2.57;1.03;;;;;;;32.40;27.81;95463.63;5132547;27;20472;-65
2023/10/08 09:53:44;;;;;;;0.43;0.43;;;;;;;32.99;27.89;95446.97;5133137;27;20873;-66
2023/10/08 09:56:17;;;;;;;0.80;0.77;;;;;;;31.86;27.83;95459.69;5132244;27;20426;-66
2023/10/08 09:58:49;;;;;;;2.00;0.70;;;;;;;33.30;28.23;95448.56;5132575;27;20925;-64
2023/10/08 10:01:19;;;;;;;4.00;0.50;;;;;;;33.50;27.35;95438.47;5132785;27;20426;-68
2023/10/08 10:03:49;;;;;;;0.30;0.30;;;;;;;34.93;25.52;95444.84;5132681;27;20943;-67
2023/10/08 10:06:20;;;;;;;1.27;1.17;;;;;;;34.33;27.46;95431.38;5132904;27;20513;-66
2023/10/08 10:08:49;;;;;;;0.70;0.70;;;;;;;34.31;25.94;95422.72;5132246;28;20863;-67
2023/10/08 10:11:18;;;;;;;0.40;0.33;;;;;;;34.07;27.04;95421.19;5132979;28;20517;-66
2023/10/08 10:13:59;;;;;;;1.13;1.03;;;;;;;33.63;26.31;95423.00;5131936;28;20434;-65
2023/10/08 10:16:28;;;;;;;0.40;0.40;;;;;;;33.89;25.60;95421.44;5132082;28;20953;-64
2023/10/08 10:18:59;;;;;;;0.50;0.50;;;;;;;33.22;25.76;95414.91;5106093;28;20441;-65
2023/10/08 10:21:32;;;;;;;0.30;0.30;;;;;;;33.07;26.86;95408.03;5131749;28;20433;-65
2023/10/08 10:24:05;;;;;;;0.30;0.20;;;;;;;33.85;26.14;95401.47;5132283;28;20433;-65
2023/10/08 10:26:35;;;;;;;0.50;0.40;;;;;;;34.26;24.93;95396.47;5132249;28;20434;-64
2023/10/08 10:29:26;;;;;;;0.70;0.50;;;;;;;34.46;25.45;95357.97;5132483;27;20438;-65
2023/10/08 10:31:56;;;;;;;2.10;0.50;;;;;;;35.00;24.76;95369.53;5132453;28;20967;-64
2023/10/08 10:34:27;;;;;;;0.40;0.30;;;;;;;36.05;23.06;95362.88;5132460;28;20438;-64
2023/10/08 10:36:58;;;;;;;0.57;0.43;;;;;;;36.44;24.27;95376.44;5132395;27;20910;-65
2023/10/08 10:39:30;;;;;;;0.90;0.90;;;;;;;36.04;22.47;95319.91;5132081;28;20785;-66
2023/10/08 10:42:03;;;;;;;0.63;0.63;;;;;;;35.88;22.98;95362.06;5132284;27;20588;-66
2023/10/08 10:44:36;;;;;;;0.60;0.53;;;;;;;35.45;23.94;95351.22;5132312;28;20569;-65
2023/10/08 10:49:55;;;;;;;0.70;0.70;;;;;;;35.19;25.38;95349.47;5131771;28;20650;-66
2023/10/08 10:52:31;;;;;;;6.40;0.50;;;;;;;34.58;24.85;95313.34;5131420;28;20200;-66
2023/10/08 10:55:18;;;;;;;0.50;0.43;;;;;;;35.43;25.12;95339.06;5134336;27;20192;-67
2023/10/08 10:58:03;;;;;;;0.50;0.50;;;;;;;34.84;24.36;95325.41;5135942;27;20249;-66
2023/10/08 11:00:47;;;;;;;1.07;1.07;;;;;;;34.97;24.26;95332.59;5135976;27;20192;-66
2023/10/08 11:03:23;;;;;;;0.40;0.30;;;;;;;35.35;24.01;95326.66;5136393;27;20231;-66
2023/10/08 11:06:05;;;;;;;0.50;0.50;;;;;;;35.29;23.96;95317.38;5136322;27;20264;-67
2023/10/08 11:08:37;;;;;;;0.80;0.80;;;;;;;34.22;24.07;95312.44;5135670;27;20748;-66
2023/10/08 11:11:06;;;;;;;0.50;0.50;;;;;;;34.48;24.23;95311.56;5135757;27;20268;-67
2023/10/08 11:13:38;;;;;;;2.43;1.30;;;;;;;34.67;24.01;95308.03;5134976;27;20651;-67
2023/10/08 11:16:13;;;;;;;0.80;0.43;;;;;;;35.50;23.94;95298.34;5135914;27;20199;-68
2023/10/08 11:18:50;;;;;;;0.40;0.30;;;;;;;35.57;23.27;95298.19;5134530;27;20188;-67
2023/10/08 11:21:23;;;;;;;0.43;0.40;;;;;;;35.56;22.51;95284.84;5134813;27;20195;-67
2023/10/08 11:23:55;;;;;;;0.67;0.40;;;;;;;35.57;23.22;95281.66;5134542;27;20221;-66
2023/10/08 11:26:32;;;;;;;0.40;0.30;;;;;;;35.63;23.00;95277.16;5134921;27;20668;-64
2023/10/08 11:29:03;;;;;;;0.50;0.50;;;;;;;35.67;22.87;95277.09;5135813;27;20200;-66
2023/10/08 11:31:34;;;;;;;0.40;0.30;;;;;;;36.09;23.07;95272.47;5135038;27;20215;-66
2023/10/08 11:34:08;;;;;;;0.37;0.30;;;;;;;35.17;23.66;95268.44;5135519;27;20250;-66
2023/10/08 11:36:48;;;;;;;0.67;0.40;;;;;;;34.60;23.63;95269.66;5135220;27;20270;-66
2023/10/08 11:39:30;;;;;;;0.40;0.37;;;;;;;34.10;23.94;95263.53;5134563;27;20735;-65
2023/10/08 11:42:06;;;;;;;0.60;0.40;;;;;;;34.47;24.38;95261.22;5135210;27;20197;-66
2023/10/08 11:44:35;;;;;;;0.40;0.40;;;;;;;35.74;24.82;95260.38;5135329;27;20241;-65
2023/10/08 11:47:13;;;;;;;0.40;0.40;;;;;;;36.02;24.21;95256.91;5135676;27;20203;-65
2023/10/08 11:49:47;;;;;;;1.27;0.33;;;;;;;35.59;24.12;95246.16;5134591;27;20226;-65
2023/10/08 11:52:16;;;;;;;0.40;0.30;;;;;;;36.46;24.00;95246.25;5135475;27;20577;-65
2023/10/08 11:54:48;;;;;;;0.30;0.30;;;;;;;36.93;23.50;95244.47;5134994;27;20200;-65
2023/10/08 11:57:21;;;;;;;0.82;0.47;;;;;;;36.68;23.13;95242.44;5135109;27;20210;-65
2023/10/08 11:59:54;;;;;;;0.70;0.70;;;;;;;34.34;24.25;95243.78;5135120;27;20200;-64
2023/10/08 12:02:26;;;;;;;0.40;0.30;;;;;;;33.70;24.71;95238.69;5134635;27;20203;-65
2023/10/08 12:04:57;;;;;;;0.70;0.60;;;;;;;34.37;25.27;95234.69;5135298;27;20282;-65
2023/10/08 12:07:27;;;;;;;0.40;0.40;;;;;;;34.29;24.52;95233.28;5134579;27;20234;-65
2023/10/08 12:09:56;;;;;;;0.30;0.20;;;;;;;35.24;23.78;95229.69;5134798;27;20200;-65
2023/10/08 12:12:24;;;;;;;2.00;0.33;;;;;;;36.41;24.28;95232.97;5134132;27;20285;-64
2023/10/08 12:14:54;;;;;;;0.40;0.40;;;;;;;36.78;24.16;95226.75;5134899;27;20297;-65